Time;durP1;ratioP1;P1;durP2;ratioP2;P2;SDS_P1;SDS_P2;PMS_P1;PMS_P2;Temp;Humidity;BMP_temperature;BMP_pressure;BME280_temperature;BME280_humidity;BME280_pressure;Samples;Min_cycle;Max_cycle;Signal;HPM_P1;HPM_P2
2023/03/01 00:01:16;;;;;;;4.25;3.38;;;22.00;32.40;;;;;;5032728;28;20060;-58
2023/03/01 00:03:43;;;;;;;4.50;3.22;;;21.90;32.30;;;;;;5032592;28;20085;-58
2023/03/01 00:06:11;;;;;;;3.47;3.17;;;21.90;32.40;;;;;;5043179;28;20516;-58
2023/03/01 00:08:38;;;;;;;3.35;3.05;;;21.90;32.40;;;;;;5052636;28;20120;-58
2023/03/01 00:11:23;;;;;;;4.97;3.58;;;21.90;32.40;;;;;;5053738;28;20081;-59
2023/03/01 00:13:52;;;;;;;4.30;3.22;;;21.90;32.40;;;;;;5052846;28;20129;-58
2023/03/01 00:16:23;;;;;;;3.13;2.83;;;21.90;32.40;;;;;;5053789;28;20473;-58
2023/03/01 00:18:50;;;;;;;3.55;3.03;;;21.90;32.40;;;;;;5052376;28;20388;-58
2023/03/01 00:21:19;;;;;;;3.03;2.72;;;21.90;32.40;;;;;;5052552;28;20052;-58
2023/03/01 00:23:48;;;;;;;3.67;3.03;;;21.90;32.50;;;;;;5053236;28;20074;-58
2023/03/01 00:26:17;;;;;;;2.90;2.65;;;21.90;32.40;;;;;;5053605;28;20500;-58
2023/03/01 00:28:45;;;;;;;3.92;3.08;;;21.90;32.50;;;;;;5053717;28;20087;-58
2023/03/01 00:31:15;;;;;;;3.58;2.97;;;21.90;32.40;;;;;;5052822;28;20048;-58
2023/03/01 00:33:43;;;;;;;4.18;3.20;;;21.90;32.50;;;;;;5053883;28;20076;-58
2023/03/01 00:36:12;;;;;;;3.90;2.97;;;21.90;32.50;;;;;;5053116;28;20048;-59
2023/03/01 00:38:41;;;;;;;3.35;3.05;;;21.90;32.40;;;;;;5051404;28;20576;-58
2023/03/01 00:41:11;;;;;;;3.83;3.13;;;21.90;32.50;;;;;;5052463;28;20063;-58
2023/03/01 00:43:39;;;;;;;3.45;3.15;;;21.90;32.40;;;;;;5052878;28;20099;-58
2023/03/01 00:46:15;;;;;;;4.75;3.17;;;21.90;32.40;;;;;;5052964;28;20048;-58
2023/03/01 00:48:42;;;;;;;3.20;2.90;;;21.80;32.40;;;;;;5053102;28;20080;-58
2023/03/01 00:51:14;;;;;;;2.88;2.67;;;21.80;32.40;;;;;;5052236;28;20132;-58
2023/03/01 00:53:42;;;;;;;3.00;2.70;;;21.90;32.40;;;;;;5053061;28;20107;-58
2023/03/01 00:56:11;;;;;;;3.33;2.75;;;21.90;32.50;;;;;;5050488;28;20132;-59
2023/03/01 00:58:38;;;;;;;3.30;3.00;;;21.90;32.40;;;;;;5052339;28;20059;-58
2023/03/01 01:01:17;;;;;;;2.60;2.40;;;21.80;32.40;;;;;;5053211;28;20127;-58
2023/03/01 01:03:52;;;;;;;3.72;3.00;;;21.80;33.00;;;;;;5051208;28;20091;-58
2023/03/01 01:06:22;;;;;;;3.65;3.13;;;21.80;32.40;;;;;;5052746;28;20080;-58
2023/03/01 01:08:50;;;;;;;2.83;2.63;;;21.80;32.40;;;;;;5052820;28;20435;-58
2023/03/01 01:11:19;;;;;;;3.45;3.03;;;21.80;32.40;;;;;;5050862;28;20172;-58
2023/03/01 01:13:47;;;;;;;2.45;2.25;;;21.80;32.40;;;;;;5052735;28;20085;-58
2023/03/01 01:16:16;;;;;;;3.67;2.63;;;21.80;32.40;;;;;;5052641;28;20091;-58
2023/03/01 01:18:44;;;;;;;3.03;2.28;;;21.80;32.40;;;;;;5052683;28;20124;-58
2023/03/01 01:21:15;;;;;;;3.75;2.88;;;21.80;32.40;;;;;;5052885;28;20532;-58
2023/03/01 01:23:43;;;;;;;3.97;3.00;;;21.80;32.40;;;;;;5052917;28;20139;-58
2023/03/01 01:26:16;;;;;;;2.75;2.50;;;21.80;32.40;;;;;;5052665;28;20099;-58
2023/03/01 01:28:43;;;;;;;3.15;2.53;;;21.80;32.40;;;;;;5052255;28;20072;-58
2023/03/01 01:31:11;;;;;;;2.53;2.30;;;21.80;32.40;;;;;;5051986;28;20049;-58
2023/03/01 01:33:38;;;;;;;3.20;2.85;;;21.80;32.40;;;;;;5052827;28;20052;-58
2023/03/01 01:36:06;;;;;;;3.22;2.80;;;21.80;32.40;;;;;;5051984;28;20596;-58
2023/03/01 01:38:34;;;;;;;3.00;2.70;;;21.80;32.40;;;;;;5052306;28;20059;-58
2023/03/01 01:41:01;;;;;;;2.95;2.47;;;21.80;32.40;;;;;;5052238;28;20045;-58
2023/03/01 01:43:33;;;;;;;2.88;2.53;;;21.80;32.40;;;;;;5052494;28;20076;-58
2023/03/01 01:46:26;;;;;;;2.78;2.58;;;21.80;32.40;;;;;;5050626;28;20041;-58
2023/03/01 01:49:08;;;;;;;3.10;2.83;;;21.80;32.40;;;;;;5052908;28;20052;-58
2023/03/01 01:51:40;;;;;;;2.58;2.35;;;21.80;32.40;;;;;;5055817;28;20084;-58
2023/03/01 01:54:14;;;;;;;3.05;2.63;;;21.80;32.30;;;;;;5056908;28;20399;-58
2023/03/01 01:56:46;;;;;;;2.38;2.17;;;21.80;32.40;;;;;;5056168;28;20041;-58
2023/03/01 01:59:14;;;;;;;2.47;2.25;;;21.80;32.30;;;;;;5055749;28;20135;-58
2023/03/01 02:01:42;;;;;;;2.38;2.10;;;21.80;32.30;;;;;;5056037;28;20083;-58
2023/03/01 02:04:10;;;;;;;3.35;2.33;;;21.80;32.30;;;;;;5055728;28;20059;-58
2023/03/01 02:06:44;;;;;;;3.10;2.80;;;21.80;32.30;;;;;;5056412;28;20045;-58
2023/03/01 02:09:15;;;;;;;2.42;2.22;;;21.80;32.30;;;;;;5056169;28;20045;-58
2023/03/01 02:11:44;;;;;;;2.83;2.63;;;21.80;32.30;;;;;;5056226;28;20107;-58
2023/03/01 02:14:11;;;;;;;3.17;2.70;;;21.80;32.50;;;;;;5055627;28;20527;-58
2023/03/01 02:16:38;;;;;;;3.75;2.70;;;21.80;32.30;;;;;;5056204;28;20505;-58
2023/03/01 02:19:07;;;;;;;2.22;2.05;;;21.70;32.30;;;;;;5054886;28;20049;-58
2023/03/01 02:21:57;;;;;;;2.53;2.28;;;21.70;32.30;;;;;;5055238;28;20073;-58
2023/03/01 02:24:54;;;;;;;3.72;2.85;;;21.80;32.40;;;;;;5055432;28;20048;-58
2023/03/01 02:27:25;;;;;;;2.70;2.35;;;21.70;32.30;;;;;;5055867;28;20124;-58
2023/03/01 02:29:53;;;;;;;2.92;2.70;;;21.70;32.30;;;;;;5055167;28;20132;-58
2023/03/01 02:32:24;;;;;;;2.20;2.00;;;21.70;32.30;;;;;;5055671;28;20037;-58
2023/03/01 02:34:54;;;;;;;2.63;2.30;;;21.70;32.30;;;;;;5055813;28;20128;-58
2023/03/01 02:37:24;;;;;;;2.85;2.25;;;21.70;32.30;;;;;;5055137;28;20136;-58
2023/03/01 02:39:59;;;;;;;2.83;2.40;;;21.70;32.30;;;;;;5055635;28;20081;-57
2023/03/01 02:42:33;;;;;;;2.72;2.30;;;21.70;32.30;;;;;;5055827;28;20480;-58
2023/03/01 02:45:00;;;;;;;3.50;2.72;;;21.70;32.40;;;;;;5054966;28;20049;-58
2023/03/01 02:47:28;;;;;;;2.58;2.28;;;21.70;32.30;;;;;;5055924;28;20467;-58
2023/03/01 02:49:55;;;;;;;2.60;2.17;;;21.70;32.40;;;;;;5055264;28;20079;-58
2023/03/01 02:52:47;;;;;;;2.90;1.90;;;21.70;32.30;;;;;;5055538;28;20083;-58
2023/03/01 02:55:15;;;;;;;2.15;1.90;;;21.70;32.30;;;;;;5055152;28;20513;-58
2023/03/01 02:57:45;;;;;;;3.70;2.50;;;21.70;32.30;;;;;;5054191;28;20124;-58
2023/03/01 03:00:26;;;;;;;2.17;1.98;;;21.70;32.30;;;;;;5054489;28;20049;-58
2023/03/01 03:02:56;;;;;;;2.10;1.88;;;21.70;32.30;;;;;;5055456;28;20128;-58
2023/03/01 03:05:28;;;;;;;2.33;2.13;;;21.70;32.30;;;;;;5055411;28;20053;-58
2023/03/01 03:07:55;;;;;;;3.40;2.45;;;21.70;32.40;;;;;;5055600;28;20151;-58
2023/03/01 03:10:28;;;;;;;2.47;2.25;;;21.70;32.40;;;;;;5054817;28;20047;-58
2023/03/01 03:12:58;;;;;;;2.97;2.30;;;21.70;32.40;;;;;;5054837;28;20527;-58
2023/03/01 03:15:28;;;;;;;2.67;2.17;;;21.70;32.40;;;;;;5054982;28;20079;-58
2023/03/01 03:17:57;;;;;;;2.90;2.60;;;21.70;32.40;;;;;;5054621;28;20052;-58
2023/03/01 03:20:26;;;;;;;2.75;2.15;;;21.70;32.40;;;;;;5054884;28;20053;-58
2023/03/01 03:22:55;;;;;;;2.90;2.38;;;21.60;32.40;;;;;;5055367;28;20460;-58
2023/03/01 03:25:23;;;;;;;2.53;2.33;;;21.60;32.40;;;;;;5055116;28;20148;-58
2023/03/01 03:27:56;;;;;;;2.67;2.28;;;21.70;32.40;;;;;;5054693;28;20044;-58
2023/03/01 03:30:26;;;;;;;3.33;2.58;;;21.70;32.40;;;;;;5055032;28;20137;-60
2023/03/01 03:32:54;;;;;;;2.10;1.90;;;21.60;32.90;;;;;;5054828;28;20695;-58
2023/03/01 03:35:24;;;;;;;2.25;2.05;;;21.70;32.40;;;;;;5054111;28;20132;-58
2023/03/01 03:38:01;;;;;;;2.75;2.17;;;21.60;32.40;;;;;;5054558;28;20049;-58
2023/03/01 03:40:32;;;;;;;2.30;2.10;;;21.70;32.40;;;;;;5054511;28;20049;-58
2023/03/01 03:42:59;;;;;;;2.53;2.33;;;21.60;32.40;;;;;;5052793;28;20485;-58
2023/03/01 03:45:28;;;;;;;2.22;2.03;;;21.60;32.40;;;;;;5054741;28;20131;-58
2023/03/01 03:47:55;;;;;;;1.90;1.80;;;21.60;33.00;;;;;;5054089;28;20049;-58
2023/03/01 03:50:22;;;;;;;2.33;2.13;;;21.60;32.40;;;;;;5054765;28;20156;-58
2023/03/01 03:52:49;;;;;;;2.13;2.03;;;21.70;32.50;;;;;;5054510;28;20603;-58
2023/03/01 03:55:19;;;;;;;4.43;2.40;;;21.60;32.40;;;;;;5054457;28;20084;-58
2023/03/01 03:57:53;;;;;;;2.53;2.20;;;21.60;32.40;;;;;;5053708;28;20471;-58
2023/03/01 04:00:23;;;;;;;3.17;2.20;;;21.60;32.40;;;;;;5054211;28;20414;-58
2023/03/01 04:02:51;;;;;;;2.60;2.40;;;21.60;32.30;;;;;;5054176;28;20052;-58
2023/03/01 04:05:19;;;;;;;2.55;2.17;;;21.60;32.30;;;;;;5053965;28;20087;-58
2023/03/01 04:07:46;;;;;;;2.92;2.05;;;21.70;32.40;;;;;;5054062;28;20052;-58
2023/03/01 04:10:17;;;;;;;2.33;2.13;;;21.60;32.30;;;;;;5053085;28;20080;-58
2023/03/01 04:12:44;;;;;;;2.45;2.10;;;21.60;32.30;;;;;;5053667;28;20098;-59
2023/03/01 04:15:15;;;;;;;2.33;2.05;;;21.60;32.30;;;;;;5053734;28;20111;-58
2023/03/01 04:17:46;;;;;;;2.38;1.92;;;21.60;32.30;;;;;;5053929;28;20059;-58
2023/03/01 04:20:17;;;;;;;2.80;2.25;;;21.60;32.30;;;;;;5052842;28;20055;-58
2023/03/01 04:22:47;;;;;;;3.60;1.88;;;21.70;32.40;;;;;;5053403;28;20048;-60
2023/03/01 04:25:14;;;;;;;2.03;1.92;;;21.60;32.40;;;;;;5053105;28;20081;-58
2023/03/01 04:27:42;;;;;;;2.38;2.10;;;21.60;32.40;;;;;;5053203;28;20408;-59
2023/03/01 04:30:10;;;;;;;2.47;2.00;;;21.60;32.40;;;;;;5053508;28;20048;-58
2023/03/01 04:32:37;;;;;;;2.10;1.88;;;21.60;32.40;;;;;;5050801;28;20045;-58
2023/03/01 04:35:04;;;;;;;1.90;1.80;;;21.60;32.40;;;;;;5056210;28;20508;-58
2023/03/01 04:37:32;;;;;;;3.15;2.20;;;21.60;32.40;;;;;;5055754;28;20127;-58
2023/03/01 04:39:59;;;;;;;2.28;2.00;;;21.60;32.40;;;;;;5053282;28;20076;-59
2023/03/01 04:42:26;;;;;;;2.78;1.70;;;21.60;32.40;;;;;;5051626;28;20080;-58
2023/03/01 04:44:53;;;;;;;1.70;1.60;;;21.60;32.40;;;;;;5052280;28;20099;-58
2023/03/01 04:47:20;;;;;;;3.45;1.95;;;21.60;32.40;;;;;;5053221;28;20044;-58
2023/03/01 04:49:48;;;;;;;2.47;2.28;;;21.60;32.40;;;;;;5053097;28;20128;-58
2023/03/01 04:52:16;;;;;;;2.28;2.08;;;21.60;32.40;;;;;;5052580;28;20049;-58
2023/03/01 04:54:43;;;;;;;2.25;2.13;;;21.60;32.40;;;;;;5050801;28;20096;-58
2023/03/01 04:57:10;;;;;;;2.67;2.22;;;21.60;32.40;;;;;;5052657;28;20132;-58
2023/03/01 04:59:37;;;;;;;2.40;1.73;;;21.60;32.40;;;;;;5053046;28;20073;-58
2023/03/01 05:02:04;;;;;;;2.55;2.30;;;21.60;32.50;;;;;;5053133;28;20048;-58
2023/03/01 05:04:31;;;;;;;1.67;1.58;;;21.50;32.40;;;;;;5052410;28;20136;-58
2023/03/01 05:06:59;;;;;;;1.90;1.80;;;21.50;32.40;;;;;;5051726;28;20136;-58
2023/03/01 05:09:26;;;;;;;2.10;1.90;;;21.60;32.40;;;;;;5052362;28;20045;-58
2023/03/01 05:11:53;;;;;;;2.28;2.10;;;21.60;32.50;;;;;;5051987;28;20077;-59
2023/03/01 05:14:20;;;;;;;2.55;2.28;;;21.50;32.40;;;;;;5043153;28;20455;-58
2023/03/01 05:16:48;;;;;;;4.10;2.30;;;21.50;32.40;;;;;;5049133;28;20560;-58
2023/03/01 05:19:15;;;;;;;2.22;1.83;;;21.60;32.50;;;;;;5051813;28;20059;-59
2023/03/01 05:24:32;;;;;;;2.25;2.05;;;21.50;32.40;;;;;;5050301;28;20084;-58
2023/03/01 05:27:01;;;;;;;1.90;1.80;;;21.50;32.40;;;;;;5050403;28;20041;-59
2023/03/01 05:29:30;;;;;;;3.25;1.92;;;21.50;32.40;;;;;;5052218;28;20152;-58
2023/03/01 05:32:00;;;;;;;2.20;2.00;;;21.50;32.50;;;;;;5051660;28;20136;-58
2023/03/01 05:34:30;;;;;;;;;;;21.50;32.50;;;;;;5052358;28;20445;-58
2023/03/01 05:36:57;;;;;;;2.47;2.15;;;21.50;32.50;;;;;;5049994;28;20003;-59
2023/03/01 05:39:26;;;;;;;4.07;2.60;;;21.50;33.00;;;;;;5050189;28;20052;-58
2023/03/01 05:41:55;;;;;;;3.10;2.80;;;21.50;32.40;;;;;;5048603;28;20128;-57
2023/03/01 05:44:23;;;;;;;3.28;2.92;;;21.50;32.30;;;;;;5050420;28;20045;-58
2023/03/01 05:46:51;;;;;;;3.00;2.70;;;21.50;32.30;;;;;;5050060;28;20049;-58
2023/03/01 05:49:19;;;;;;;4.15;2.80;;;21.50;32.40;;;;;;5050089;28;20057;-57
2023/03/01 05:51:51;;;;;;;2.30;2.20;;;21.40;32.40;;;;;;5049462;28;20099;-58
2023/03/01 05:54:20;;;;;;;4.20;2.88;;;21.40;32.50;;;;;;5042074;28;20083;-58
2023/03/01 05:56:47;;;;;;;3.85;3.00;;;21.40;32.50;;;;;;5042664;28;20103;-57
2023/03/01 05:59:16;;;;;;;3.22;2.90;;;21.40;32.50;;;;;;5044486;28;20045;-58
2023/03/01 06:01:43;;;;;;;3.10;2.88;;;21.40;32.50;;;;;;5046176;28;20128;-58
2023/03/01 06:04:10;;;;;;;3.38;2.78;;;21.50;32.50;;;;;;5040592;28;20099;-58
2023/03/01 06:06:38;;;;;;;3.97;3.00;;;21.40;32.40;;;;;;5041472;28;20406;-58
2023/03/01 06:09:07;;;;;;;2.90;2.70;;;21.50;32.50;;;;;;5043691;28;20120;-58
2023/03/01 06:11:35;;;;;;;3.17;2.88;;;21.50;32.50;;;;;;5048541;28;20119;-58
2023/03/01 06:14:04;;;;;;;3.22;2.38;;;21.60;32.60;;;;;;5050208;28;20057;-59
2023/03/01 06:16:31;;;;;;;3.00;2.80;;;21.50;32.60;;;;;;5051489;28;20049;-58
2023/03/01 06:18:58;;;;;;;3.70;2.97;;;21.60;32.60;;;;;;5050823;28;20045;-56
2023/03/01 06:21:26;;;;;;;4.40;2.85;;;21.60;32.60;;;;;;5047006;28;20556;-59
2023/03/01 06:23:53;;;;;;;3.00;2.45;;;21.60;32.60;;;;;;5039062;28;20045;-56
2023/03/01 06:26:21;;;;;;;3.40;3.00;;;21.60;32.60;;;;;;5036899;28;20087;-55
2023/03/01 06:28:48;;;;;;;3.53;3.03;;;21.60;32.70;;;;;;5040678;28;20053;-58
2023/03/01 06:31:15;;;;;;;3.58;3.08;;;21.70;32.70;;;;;;5041023;28;20444;-58
2023/03/01 06:33:44;;;;;;;3.65;2.95;;;21.70;32.80;;;;;;5043144;28;20102;-58
2023/03/01 06:36:11;;;;;;;4.25;3.53;;;21.70;32.80;;;;;;5036507;28;20095;-57
2023/03/01 06:38:40;;;;;;;5.50;3.75;;;21.80;32.90;;;;;;5043533;28;20111;-57
2023/03/01 06:41:07;;;;;;;3.67;3.38;;;21.80;32.90;;;;;;5046084;28;20518;-58
2023/03/01 06:43:34;;;;;;;5.90;4.03;;;21.80;33.40;;;;;;5049580;28;20144;-58
2023/03/01 06:46:05;;;;;;;4.55;3.40;;;21.90;32.90;;;;;;5037903;28;20083;-59
2023/03/01 06:48:33;;;;;;;3.85;3.35;;;21.90;32.90;;;;;;5044841;28;20069;-58
2023/03/01 06:51:01;;;;;;;4.60;3.70;;;21.90;33.10;;;;;;5036850;28;20056;-59
2023/03/01 06:53:29;;;;;;;6.50;3.40;;;22.00;33.20;;;;;;5043132;28;20057;-60
2023/03/01 06:55:57;;;;;;;3.40;2.92;;;22.00;33.20;;;;;;5041560;28;20110;-58
2023/03/01 06:58:24;;;;;;;3.35;3.08;;;22.00;33.10;;;;;;5039574;28;20136;-60
2023/03/01 07:00:51;;;;;;;4.20;3.72;;;22.10;33.10;;;;;;5041844;28;20061;-59
2023/03/01 07:03:19;;;;;;;4.47;3.65;;;22.10;33.10;;;;;;5040789;28;20078;-60
2023/03/01 07:05:51;;;;;;;4.75;3.80;;;22.10;33.30;;;;;;5043335;28;20061;-59
2023/03/01 07:08:19;;;;;;;5.40;3.97;;;22.20;33.70;;;;;;5039428;28;20124;-63
2023/03/01 07:10:46;;;;;;;4.82;3.92;;;22.30;34.00;;;;;;5040816;28;20049;-63
2023/03/01 07:13:14;;;;;;;4.10;3.45;;;22.30;34.20;;;;;;5043044;28;20049;-64
2023/03/01 07:15:41;;;;;;;6.47;4.28;;;22.30;34.30;;;;;;5043858;28;20524;-63
2023/03/01 07:18:08;;;;;;;6.50;4.28;;;22.40;34.40;;;;;;5040296;28;20049;-63
2023/03/01 07:20:36;;;;;;;4.88;3.92;;;22.40;34.50;;;;;;5035660;28;21649;-63
2023/03/01 07:23:06;;;;;;;7.05;3.80;;;22.50;34.70;;;;;;5037850;28;20481;-63
2023/03/01 07:25:33;;;;;;;5.33;3.97;;;22.50;34.60;;;;;;5038044;28;20076;-62
2023/03/01 07:28:00;;;;;;;7.13;3.80;;;22.50;34.50;;;;;;5038300;28;20298;-63
2023/03/01 07:30:28;;;;;;;6.00;4.10;;;22.60;34.60;;;;;;5042370;28;20044;-63
2023/03/01 07:32:57;;;;;;;5.13;3.50;;;22.60;34.60;;;;;;5043616;28;20055;-63
2023/03/01 07:35:27;;;;;;;10.48;4.00;;;22.60;34.50;;;;;;5045654;28;20516;-64
2023/03/01 07:37:55;;;;;;;5.78;4.03;;;22.70;34.60;;;;;;5043858;28;20053;-63
2023/03/01 07:40:22;;;;;;;7.63;4.82;;;22.70;34.50;;;;;;5046065;28;20052;-64
2023/03/01 07:42:54;;;;;;;7.50;4.40;;;22.70;35.10;;;;;;5043752;28;20451;-63
2023/03/01 07:45:21;;;;;;;7.28;4.53;;;22.80;34.50;;;;;;5040701;28;20048;-63
2023/03/01 07:47:51;;;;;;;7.10;4.25;;;22.80;34.50;;;;;;5043068;28;20067;-62
2023/03/01 07:50:18;;;;;;;7.57;4.88;;;22.90;34.50;;;;;;5036990;28;20056;-63
2023/03/01 07:52:47;;;;;;;12.75;4.95;;;22.90;34.30;;;;;;5043426;28;20072;-62
2023/03/01 07:55:15;;;;;;;7.88;5.63;;;23.00;34.10;;;;;;5039533;28;20059;-62
2023/03/01 07:57:43;;;;;;;7.55;4.53;;;23.00;34.10;;;;;;5036098;28;20049;-62
2023/03/01 08:00:11;;;;;;;7.63;5.35;;;23.00;34.10;;;;;;5040826;28;20049;-60
2023/03/01 08:02:40;;;;;;;7.35;4.65;;;23.10;34.20;;;;;;5044620;28;20040;-61
2023/03/01 08:05:08;;;;;;;7.70;5.15;;;23.10;34.10;;;;;;5041067;28;20041;-64
2023/03/01 08:07:36;;;;;;;8.23;4.85;;;23.10;34.10;;;;;;5049584;28;20140;-63
2023/03/01 08:10:03;;;;;;;8.40;5.45;;;23.10;34.10;;;;;;5041643;28;20051;-63
2023/03/01 08:12:30;;;;;;;9.05;5.45;;;23.20;34.10;;;;;;5042110;28;20076;-65
2023/03/01 08:14:57;;;;;;;7.95;5.43;;;23.20;34.00;;;;;;5038826;28;20424;-63
2023/03/01 08:17:25;;;;;;;7.93;5.63;;;23.20;34.10;;;;;;5036484;28;20102;-64
2023/03/01 08:19:53;;;;;;;8.80;5.20;;;23.30;34.10;;;;;;5046797;28;20083;-62
2023/03/01 08:22:20;;;;;;;8.55;5.82;;;23.30;34.10;;;;;;5044927;28;20137;-65
2023/03/01 08:24:47;;;;;;;11.18;6.70;;;23.30;34.00;;;;;;5037697;28;20049;-62
2023/03/01 08:27:16;;;;;;;10.35;7.60;;;23.30;34.00;;;;;;5041403;28;20037;-63
2023/03/01 08:29:44;;;;;;;16.27;8.23;;;23.40;34.10;;;;;;5044359;28;20053;-67
2023/03/01 08:32:11;;;;;;;12.15;8.45;;;23.40;34.10;;;;;;5043014;28;20164;-66
2023/03/01 08:34:39;;;;;;;15.70;7.97;;;23.40;34.20;;;;;;5044929;28;20496;-63
2023/03/01 08:37:08;;;;;;;12.82;8.10;;;23.50;34.30;;;;;;5047061;28;20068;-65
2023/03/01 08:39:35;;;;;;;13.57;7.18;;;23.50;34.40;;;;;;5044604;28;20048;-66
2023/03/01 08:42:04;;;;;;;13.85;7.82;;;23.50;34.30;;;;;;5041409;28;20072;-66
2023/03/01 08:44:31;;;;;;;12.98;7.32;;;23.60;34.20;;;;;;5043742;28;20084;-63
2023/03/01 08:46:58;;;;;;;9.77;6.30;;;23.60;34.00;;;;;;5045574;28;20077;-64
2023/03/01 08:49:26;;;;;;;10.88;7.63;;;23.60;33.80;;;;;;5044291;28;20057;-63
2023/03/01 08:51:54;;;;;;;11.05;7.45;;;23.70;33.70;;;;;;5044148;28;20064;-64
2023/03/01 08:54:22;;;;;;;13.70;7.90;;;23.70;33.60;;;;;;5043906;28;20106;-63
2023/03/01 08:56:49;;;;;;;10.90;7.80;;;23.70;33.40;;;;;;5046050;28;20052;-62
2023/03/01 08:59:17;;;;;;;11.85;7.88;;;23.70;33.30;;;;;;5044088;28;20451;-63
2023/03/01 09:01:45;;;;;;;16.20;9.10;;;23.70;33.30;;;;;;5041032;28;20056;-64
2023/03/01 09:04:14;;;;;;;11.93;8.20;;;23.80;33.30;;;;;;5045287;28;21399;-63
2023/03/01 09:06:43;;;;;;;11.38;7.85;;;23.80;33.30;;;;;;5041127;28;20077;-63
2023/03/01 09:09:15;;;;;;;13.25;9.25;;;23.80;33.20;;;;;;5019474;28;20493;-63
2023/03/01 09:11:46;;;;;;;13.32;8.60;;;23.80;33.20;;;;;;5042350;28;20333;-64
2023/03/01 09:14:14;;;;;;;14.20;8.32;;;23.80;33.20;;;;;;5044203;28;20045;-64
2023/03/01 09:16:42;;;;;;;13.73;9.02;;;23.80;33.20;;;;;;5043488;28;20056;-64
2023/03/01 09:19:09;;;;;;;16.13;8.50;;;23.90;33.10;;;;;;5042923;28;20053;-64
2023/03/01 09:21:37;;;;;;;15.77;9.25;;;23.90;33.10;;;;;;5040214;28;20479;-63
2023/03/01 09:24:14;;;;;;;23.17;8.43;;;23.80;33.00;;;;;;5037567;28;20041;-65
2023/03/01 09:26:42;;;;;;;15.70;8.45;;;23.90;33.00;;;;;;5042051;28;20065;-60
2023/03/01 09:29:10;;;;;;;13.98;7.80;;;23.90;33.20;;;;;;5038516;28;20107;-63
2023/03/01 09:31:37;;;;;;;15.18;8.40;;;23.90;33.40;;;;;;5038974;28;20049;-66
2023/03/01 09:34:05;;;;;;;16.25;8.88;;;23.90;33.40;;;;;;5040556;28;20102;-63
2023/03/01 09:36:33;;;;;;;16.40;8.93;;;24.00;33.40;;;;;;5037067;28;20057;-62
2023/03/01 09:39:02;;;;;;;20.63;9.32;;;23.90;33.30;;;;;;5038909;28;20060;-66
2023/03/01 09:41:59;;;;;;;15.55;8.63;;;24.00;33.20;;;;;;5038274;28;20741;-65
2023/03/01 09:44:52;;;;;;;16.92;8.20;;;24.00;33.20;;;;;;5039442;28;20045;-64
2023/03/01 09:47:23;;;;;;;14.82;8.55;;;24.00;33.40;;;;;;5042294;28;20141;-59
2023/03/01 09:50:21;;;;;;;15.68;8.50;;;24.00;33.50;;;;;;5039294;28;20191;-62
2023/03/01 09:53:05;;;;;;;17.60;9.02;;;24.00;33.50;;;;;;5043051;28;20083;-63
2023/03/01 09:55:58;;;;;;;17.45;8.95;;;24.00;33.50;;;;;;5040019;28;20457;-64
2023/03/01 09:59:03;;;;;;;16.38;8.63;;;24.00;33.50;;;;;;5036793;28;20132;-63
2023/03/01 10:01:40;;;;;;;15.15;8.38;;;24.00;33.30;;;;;;5038637;28;20128;-63
2023/03/01 10:04:32;;;;;;;15.73;8.98;;;24.00;33.10;;;;;;5038812;28;20045;-62
2023/03/01 10:07:37;;;;;;;16.77;10.23;;;24.10;33.30;;;;;;5037103;28;20053;-62
2023/03/01 10:10:07;;;;;;;22.77;10.77;;;24.10;33.40;;;;;;5042256;28;20080;-62
2023/03/01 10:12:39;;;;;;;23.33;11.27;;;24.10;34.00;;;;;;5040301;28;20099;-62
2023/03/01 10:15:17;;;;;;;16.58;10.27;;;24.10;33.40;;;;;;5037967;28;20381;-63
2023/03/01 10:18:10;;;;;;;17.92;10.10;;;24.20;33.40;;;;;;5039571;28;20717;-64
2023/03/01 10:20:57;;;;;;;14.70;8.80;;;24.20;33.20;;;;;;5042367;28;20063;-63
2023/03/01 10:23:27;;;;;;;17.60;9.52;;;24.20;33.20;;;;;;5044262;28;20136;-63
2023/03/01 10:26:27;;;;;;;16.63;9.65;;;24.30;33.30;;;;;;5039098;28;20076;-65
2023/03/01 10:29:03;;;;;;;18.02;9.15;;;24.30;33.20;;;;;;5041547;28;20084;-65
2023/03/01 10:31:50;;;;;;;17.02;9.43;;;24.40;33.20;;;;;;5042908;28;20456;-68
2023/03/01 10:34:27;;;;;;;17.90;10.27;;;24.50;33.10;;;;;;5047491;28;20056;-65
2023/03/01 10:37:09;;;;;;;14.13;8.27;;;24.50;33.10;;;;;;5044712;28;20076;-63
2023/03/01 10:39:37;;;;;;;17.10;9.35;;;24.60;33.10;;;;;;5037730;28;20085;-63
2023/03/01 10:42:18;;;;;;;12.70;7.93;;;24.60;33.00;;;;;;5038468;28;20171;-65
2023/03/01 10:44:48;;;;;;;14.60;9.02;;;24.60;32.90;;;;;;5038260;28;20049;-65
2023/03/01 10:47:21;;;;;;;13.05;8.48;;;24.70;32.90;;;;;;5044028;28;20497;-63
2023/03/01 10:50:05;;;;;;;14.38;8.68;;;24.70;32.80;;;;;;5038778;28;20056;-64
2023/03/01 10:52:40;;;;;;;13.63;8.52;;;24.70;32.50;;;;;;5038314;28;20049;-64
2023/03/01 10:55:31;;;;;;;14.48;9.05;;;24.80;32.50;;;;;;5042276;28;20144;-65
2023/03/01 10:58:22;;;;;;;13.65;9.15;;;24.90;32.50;;;;;;5038821;28;20139;-63
2023/03/01 11:01:13;;;;;;;15.02;7.78;;;24.90;32.50;;;;;;5040214;28;20055;-67
2023/03/01 11:04:13;;;;;;;15.45;8.50;;;24.90;32.40;;;;;;5032144;28;20592;-66
2023/03/01 11:06:43;;;;;;;12.43;8.30;;;24.90;32.10;;;;;;5042343;28;20045;-67
2023/03/01 11:09:27;;;;;;;15.73;7.93;;;24.90;32.00;;;;;;5047374;28;20135;-64
2023/03/01 11:11:56;;;;;;;13.20;7.38;;;24.90;32.00;;;;;;5042872;28;20546;-64
2023/03/01 11:14:26;;;;;;;15.60;9.20;;;24.90;32.00;;;;;;5045048;28;20493;-65
2023/03/01 11:16:59;;;;;;;;;;;25.00;32.00;;;;;;5043872;28;20053;-64
2023/03/01 11:19:26;;;;;;;22.58;11.27;;;25.00;31.90;;;;;;5042679;28;19920;-64
2023/03/01 11:22:16;;;;;;;21.13;11.00;;;25.00;31.90;;;;;;5041597;28;20053;-64
2023/03/01 11:24:51;;;;;;;19.02;9.60;;;25.00;31.80;;;;;;5042735;28;20059;-64
2023/03/01 11:27:41;;;;;;;27.05;11.00;;;25.10;31.80;;;;;;5041673;28;20505;-65
2023/03/01 11:30:30;;;;;;;18.35;10.90;;;25.10;31.80;;;;;;5045934;28;20049;-65
2023/03/01 11:33:37;;;;;;;18.27;10.27;;;25.10;31.70;;;;;;5043775;28;20183;-65
2023/03/01 11:36:41;;;;;;;18.80;10.32;;;25.10;31.70;;;;;;5039296;28;20048;-65
2023/03/01 11:39:46;;;;;;;19.77;10.20;;;25.10;31.70;;;;;;5044588;28;20099;-64
2023/03/01 11:42:27;;;;;;;17.90;9.98;;;25.10;31.70;;;;;;5045188;28;20140;-65
2023/03/01 11:45:08;;;;;;;18.83;9.75;;;25.10;31.60;;;;;;5047656;28;20795;-65
2023/03/01 11:48:15;;;;;;;20.95;10.70;;;25.10;31.70;;;;;;5047145;28;20053;-65
2023/03/01 11:50:48;;;;;;;21.10;10.68;;;25.10;31.70;;;;;;5044441;28;20508;-66
2023/03/01 11:53:48;;;;;;;21.17;9.93;;;25.10;31.60;;;;;;5047413;28;20708;-65
2023/03/01 11:56:35;;;;;;;20.77;10.63;;;25.20;31.70;;;;;;5041331;28;20130;-66
2023/03/01 11:59:42;;;;;;;17.10;10.20;;;25.20;31.70;;;;;;5045697;28;20147;-67
2023/03/01 12:02:39;;;;;;;16.40;10.38;;;25.20;31.60;;;;;;5041915;28;20429;-66
2023/03/01 12:05:36;;;;;;;18.48;10.07;;;25.20;31.50;;;;;;5042809;28;20048;-67
2023/03/01 12:08:20;;;;;;;19.85;9.60;;;25.30;31.60;;;;;;5042600;28;20555;-63
2023/03/01 12:11:08;;;;;;;14.77;9.75;;;25.30;31.40;;;;;;5044583;28;20048;-63
2023/03/01 12:14:02;;;;;;;16.63;10.25;;;25.20;31.50;;;;;;5045026;28;20055;-64
2023/03/01 12:17:00;;;;;;;17.60;9.70;;;25.20;31.70;;;;;;5044113;28;20396;-65
2023/03/01 12:20:04;;;;;;;16.52;9.65;;;25.20;31.70;;;;;;5043276;28;20068;-63
2023/03/01 12:22:38;;;;;;;14.77;8.88;;;25.10;31.70;;;;;;5044688;28;20504;-63
2023/03/01 12:25:29;;;;;;;14.35;8.85;;;25.10;31.70;;;;;;5045203;28;20136;-63
2023/03/01 12:28:27;;;;;;;17.75;8.30;;;25.10;31.70;;;;;;5036521;28;20091;-64
2023/03/01 12:31:25;;;;;;;17.08;8.52;;;25.10;31.70;;;;;;5039477;28;20118;-64
2023/03/01 12:34:31;;;;;;;16.23;8.57;;;25.10;31.60;;;;;;5035933;28;20076;-64
2023/03/01 12:37:39;;;;;;;17.50;8.98;;;25.10;31.60;;;;;;5042098;28;20138;-57
2023/03/01 12:40:23;;;;;;;;;;;25.10;31.70;;;;;;5036280;28;20053;-59
2023/03/01 12:43:06;;;;;;;15.95;8.88;;;25.10;31.70;;;;;;5040284;28;19928;-60
2023/03/01 12:46:13;;;;;;;14.02;8.13;;;25.10;31.80;;;;;;5038486;28;20155;-60
2023/03/01 12:49:16;;;;;;;16.67;8.40;;;25.10;31.80;;;;;;5045089;28;20107;-58
2023/03/01 12:51:58;;;;;;;18.35;8.65;;;25.10;31.80;;;;;;5042872;28;20053;-58
2023/03/01 12:54:30;;;;;;;17.00;9.10;;;25.10;31.80;;;;;;5039551;28;20481;-58
2023/03/01 12:57:15;;;;;;;15.40;9.75;;;25.10;31.70;;;;;;5037362;28;21698;-58
2023/03/01 13:00:11;;;;;;;13.52;8.52;;;25.10;31.70;;;;;;5043168;28;20135;-59
2023/03/01 13:02:56;;;;;;;14.63;8.65;;;25.10;31.60;;;;;;5043395;28;20051;-60
2023/03/01 13:06:02;;;;;;;17.00;8.18;;;25.10;31.70;;;;;;5040500;28;20163;-59
2023/03/01 13:08:43;;;;;;;18.90;8.73;;;25.20;31.60;;;;;;5042750;28;20045;-59
2023/03/01 13:11:20;;;;;;;13.50;7.93;;;25.20;31.70;;;;;;5041882;28;20142;-59
2023/03/01 13:13:48;;;;;;;15.15;8.30;;;25.20;31.70;;;;;;5043358;28;20045;-60
2023/03/01 13:16:45;;;;;;;14.10;7.60;;;25.20;31.60;;;;;;5044536;28;20070;-60
2023/03/01 13:19:29;;;;;;;19.75;9.40;;;25.20;31.60;;;;;;5044883;28;20132;-61